KSFF/SFF METAR and TAF weather

Enter ICAO airport designator
Station Type Date Time Source
KSFF METAR 2020/04/02 02:53 UTC NOAA

KSFF 020253Z 00000KT 10SM SCT035 02/M01 A2997 RMK AO2 SLP162 60000 T00221011 51012


Station Type Date Time Source
KSFF Decoded METAR 2020/04/02 02:53 UTC NOAA

FELTS FIELD, WA, United States (KSFF) 47-41N 117-19W 609M
Apr 01, 2020 - 10:53 PM EDT / 2020.04.02 0253 UTC
Wind: Calm:0
Visibility: 10 mile(s):0
Sky conditions: partly cloudy
Temperature: 36.0 F (2.2 C)
Dew Point: 30.0 F (-1.1 C)
Relative Humidity: 78%
Pressure (altimeter): 29.97 in. Hg (1014 hPa)
Pressure tendency: 0.04 inches (1.2 hPa) higher than three hours ago
ob: KSFF 020253Z 00000KT 10SM SCT035 02/M01 A2997 RMK AO2 SLP162 60000 T00221011 51012
cycle: 3

Station Type Date Time Source
KSFF TAF 2020/04/02 02:06 UTC NOAA

TAF
AMD KSFF 020204Z 0202/0224 VRB03KT P6SM BKN035 BKN100
TEMPO 0202/0203 P6SM -SHRA BKN030 OVC060
FM020300 VRB03KT P6SM SCT030 BKN080
FM020600 VRB03KT P6SM VCSH SCT060 BKN100
FM021800 24005KT P6SM VCSH SCT030 BKN050

Example: see airport list